Richville, Arizona
Current Conditions -  °F | °C
As of 6:54 PM on Wednesday 17 Dec 2014 (Local Time) from KSJN Reporting Station
Clear Clear  
Wind Chill: 28°   Ceiling: Unl
Heat Index: 36°   Visibility: 10mi
Dew Point: 30°   Wind: 12mph
Humidity: 79%   Direction: 240°WSW
Pressure: 30.06"   Gusts: NA
Location:  34.4981°N, 109.241°W
Report Text: KSJN 180154Z AUTO 24010KT 10SM CLR 02/M01 A3006 RMK AO2 SLP169 T00221011
Loading
Personal Weather Stations






























Interactive Weather Map New forecast layout! Learn more

10-Day Weather Forecast

Advertisements
Track Severe Weather on mobile